sensor_id;sensor_type;location;lat;lon;timestamp;P1;durP1;ratioP1;P2;durP2;ratioP2
20870;SDS011;10595;51.218;3.452;2023-08-08T00:01:33;8.77;;;4.13;;
20870;SDS011;10595;51.218;3.452;2023-08-08T00:04:00;16.20;;;4.67;;
20870;SDS011;10595;51.218;3.452;2023-08-08T00:06:26;11.17;;;4.47;;
20870;SDS011;10595;51.218;3.452;2023-08-08T00:08:52;12.90;;;4.47;;
20870;SDS011;10595;51.218;3.452;2023-08-08T00:11:18;13.90;;;4.73;;
20870;SDS011;10595;51.218;3.452;2023-08-08T00:13:44;13.00;;;4.10;;
20870;SDS011;10595;51.218;3.452;2023-08-08T00:16:10;18.47;;;5.47;;
20870;SDS011;10595;51.218;3.452;2023-08-08T00:18:36;12.50;;;4.13;;
20870;SDS011;10595;51.218;3.452;2023-08-08T00:21:02;11.53;;;4.37;;
20870;SDS011;10595;51.218;3.452;2023-08-08T00:23:28;15.07;;;5.97;;
20870;SDS011;10595;51.218;3.452;2023-08-08T00:25:54;15.63;;;5.27;;
20870;SDS011;10595;51.218;3.452;2023-08-08T00:28:20;11.57;;;4.50;;
20870;SDS011;10595;51.218;3.452;2023-08-08T00:30:46;17.17;;;5.10;;
20870;SDS011;10595;51.218;3.452;2023-08-08T00:33:12;18.90;;;4.83;;
20870;SDS011;10595;51.218;3.452;2023-08-08T00:35:38;15.17;;;5.10;;
20870;SDS011;10595;51.218;3.452;2023-08-08T00:38:04;15.03;;;5.13;;
20870;SDS011;10595;51.218;3.452;2023-08-08T00:40:30;18.03;;;4.93;;
20870;SDS011;10595;51.218;3.452;2023-08-08T00:42:56;16.77;;;5.53;;
20870;SDS011;10595;51.218;3.452;2023-08-08T00:45:22;17.03;;;5.80;;
20870;SDS011;10595;51.218;3.452;2023-08-08T00:47:49;23.63;;;5.67;;
20870;SDS011;10595;51.218;3.452;2023-08-08T00:50:15;14.67;;;5.13;;
20870;SDS011;10595;51.218;3.452;2023-08-08T00:52:43;13.20;;;5.10;;
20870;SDS011;10595;51.218;3.452;2023-08-08T00:55:09;14.27;;;4.77;;
20870;SDS011;10595;51.218;3.452;2023-08-08T00:57:36;17.43;;;5.37;;
20870;SDS011;10595;51.218;3.452;2023-08-08T01:00:04;15.83;;;5.73;;
20870;SDS011;10595;51.218;3.452;2023-08-08T01:02:30;16.60;;;4.83;;
20870;SDS011;10595;51.218;3.452;2023-08-08T01:04:57;18.60;;;5.30;;
20870;SDS011;10595;51.218;3.452;2023-08-08T01:09:55;14.47;;;5.07;;
20870;SDS011;10595;51.218;3.452;2023-08-08T01:12:21;16.93;;;5.57;;
20870;SDS011;10595;51.218;3.452;2023-08-08T01:14:49;12.93;;;5.23;;
20870;SDS011;10595;51.218;3.452;2023-08-08T01:17:15;19.07;;;5.83;;
20870;SDS011;10595;51.218;3.452;2023-08-08T01:19:42;15.13;;;4.97;;
20870;SDS011;10595;51.218;3.452;2023-08-08T01:22:09;15.23;;;5.17;;
20870;SDS011;10595;51.218;3.452;2023-08-08T01:24:39;15.80;;;5.10;;
20870;SDS011;10595;51.218;3.452;2023-08-08T01:27:05;19.73;;;5.20;;
20870;SDS011;10595;51.218;3.452;2023-08-08T01:29:32;22.70;;;5.07;;
20870;SDS011;10595;51.218;3.452;2023-08-08T01:31:58;14.23;;;5.10;;
20870;SDS011;10595;51.218;3.452;2023-08-08T01:34:24;13.70;;;5.37;;
20870;SDS011;10595;51.218;3.452;2023-08-08T01:39:17;20.43;;;5.63;;
20870;SDS011;10595;51.218;3.452;2023-08-08T01:41:46;18.83;;;5.30;;
20870;SDS011;10595;51.218;3.452;2023-08-08T01:44:12;11.43;;;4.80;;
20870;SDS011;10595;51.218;3.452;2023-08-08T01:46:39;13.97;;;4.83;;
20870;SDS011;10595;51.218;3.452;2023-08-08T01:49:05;19.43;;;5.50;;
20870;SDS011;10595;51.218;3.452;2023-08-08T01:51:31;14.97;;;4.87;;
20870;SDS011;10595;51.218;3.452;2023-08-08T01:53:57;16.80;;;4.80;;
20870;SDS011;10595;51.218;3.452;2023-08-08T01:56:23;15.00;;;4.87;;
20870;SDS011;10595;51.218;3.452;2023-08-08T01:58:49;17.63;;;4.83;;
20870;SDS011;10595;51.218;3.452;2023-08-08T02:01:15;17.70;;;5.73;;
20870;SDS011;10595;51.218;3.452;2023-08-08T02:03:41;10.00;;;4.57;;
20870;SDS011;10595;51.218;3.452;2023-08-08T02:06:07;14.23;;;4.67;;
20870;SDS011;10595;51.218;3.452;2023-08-08T02:08:33;13.83;;;4.53;;
20870;SDS011;10595;51.218;3.452;2023-08-08T02:10:59;14.23;;;4.90;;
20870;SDS011;10595;51.218;3.452;2023-08-08T02:13:25;12.67;;;4.20;;
20870;SDS011;10595;51.218;3.452;2023-08-08T02:15:51;13.60;;;4.80;;
20870;SDS011;10595;51.218;3.452;2023-08-08T02:18:18;13.20;;;4.80;;
20870;SDS011;10595;51.218;3.452;2023-08-08T02:20:44;14.47;;;5.17;;
20870;SDS011;10595;51.218;3.452;2023-08-08T02:23:10;13.17;;;4.00;;
20870;SDS011;10595;51.218;3.452;2023-08-08T02:25:36;14.83;;;4.67;;
20870;SDS011;10595;51.218;3.452;2023-08-08T02:28:02;10.33;;;3.80;;
20870;SDS011;10595;51.218;3.452;2023-08-08T02:30:28;17.10;;;4.60;;
20870;SDS011;10595;51.218;3.452;2023-08-08T02:32:54;14.70;;;4.20;;
20870;SDS011;10595;51.218;3.452;2023-08-08T02:35:20;11.00;;;4.50;;
20870;SDS011;10595;51.218;3.452;2023-08-08T02:37:46;11.27;;;4.37;;
20870;SDS011;10595;51.218;3.452;2023-08-08T02:40:12;15.13;;;4.37;;
20870;SDS011;10595;51.218;3.452;2023-08-08T02:42:38;14.47;;;4.43;;
20870;SDS011;10595;51.218;3.452;2023-08-08T02:45:04;10.90;;;4.80;;
20870;SDS011;10595;51.218;3.452;2023-08-08T02:47:30;13.77;;;4.90;;
20870;SDS011;10595;51.218;3.452;2023-08-08T02:49:56;13.97;;;4.93;;
20870;SDS011;10595;51.218;3.452;2023-08-08T02:52:22;11.53;;;4.30;;
20870;SDS011;10595;51.218;3.452;2023-08-08T02:54:48;16.67;;;4.53;;
20870;SDS011;10595;51.218;3.452;2023-08-08T02:57:14;17.17;;;5.00;;
20870;SDS011;10595;51.218;3.452;2023-08-08T02:59:40;12.43;;;5.00;;
20870;SDS011;10595;51.218;3.452;2023-08-08T03:02:06;15.60;;;5.87;;
20870;SDS011;10595;51.218;3.452;2023-08-08T03:04:32;12.57;;;4.87;;
20870;SDS011;10595;51.218;3.452;2023-08-08T03:06:58;12.50;;;4.70;;
20870;SDS011;10595;51.218;3.452;2023-08-08T03:09:27;13.20;;;4.63;;
20870;SDS011;10595;51.218;3.452;2023-08-08T03:11:53;16.07;;;5.07;;
20870;SDS011;10595;51.218;3.452;2023-08-08T03:14:19;14.37;;;4.57;;
20870;SDS011;10595;51.218;3.452;2023-08-08T03:16:45;16.93;;;5.20;;
20870;SDS011;10595;51.218;3.452;2023-08-08T03:19:11;14.50;;;5.23;;
20870;SDS011;10595;51.218;3.452;2023-08-08T03:21:37;9.73;;;4.57;;
20870;SDS011;10595;51.218;3.452;2023-08-08T03:24:03;13.73;;;4.70;;
20870;SDS011;10595;51.218;3.452;2023-08-08T03:26:30;12.13;;;4.97;;
20870;SDS011;10595;51.218;3.452;2023-08-08T03:28:56;15.47;;;4.90;;
20870;SDS011;10595;51.218;3.452;2023-08-08T03:31:22;15.53;;;5.47;;
20870;SDS011;10595;51.218;3.452;2023-08-08T03:33:49;14.90;;;4.90;;
20870;SDS011;10595;51.218;3.452;2023-08-08T03:36:15;12.07;;;4.67;;
20870;SDS011;10595;51.218;3.452;2023-08-08T03:38:41;18.47;;;5.30;;
20870;SDS011;10595;51.218;3.452;2023-08-08T03:41:11;15.33;;;5.23;;
20870;SDS011;10595;51.218;3.452;2023-08-08T03:43:37;12.40;;;4.70;;
20870;SDS011;10595;51.218;3.452;2023-08-08T03:46:03;12.20;;;4.70;;
20870;SDS011;10595;51.218;3.452;2023-08-08T03:48:29;13.97;;;4.70;;
20870;SDS011;10595;51.218;3.452;2023-08-08T03:50:55;12.23;;;4.70;;
20870;SDS011;10595;51.218;3.452;2023-08-08T03:53:21;12.60;;;4.93;;
20870;SDS011;10595;51.218;3.452;2023-08-08T03:55:47;17.37;;;5.47;;
20870;SDS011;10595;51.218;3.452;2023-08-08T03:58:13;16.60;;;5.47;;
20870;SDS011;10595;51.218;3.452;2023-08-08T04:00:39;13.70;;;5.37;;
20870;SDS011;10595;51.218;3.452;2023-08-08T04:03:12;14.77;;;5.00;;
20870;SDS011;10595;51.218;3.452;2023-08-08T04:05:38;11.87;;;5.43;;
20870;SDS011;10595;51.218;3.452;2023-08-08T04:08:04;14.67;;;5.30;;
20870;SDS011;10595;51.218;3.452;2023-08-08T04:10:30;13.47;;;5.27;;
20870;SDS011;10595;51.218;3.452;2023-08-08T04:12:56;13.03;;;5.23;;
20870;SDS011;10595;51.218;3.452;2023-08-08T04:15:22;18.67;;;5.33;;
20870;SDS011;10595;51.218;3.452;2023-08-08T04:17:48;15.97;;;4.73;;
20870;SDS011;10595;51.218;3.452;2023-08-08T04:20:14;16.07;;;5.40;;
20870;SDS011;10595;51.218;3.452;2023-08-08T04:22:40;12.47;;;4.80;;
20870;SDS011;10595;51.218;3.452;2023-08-08T04:25:06;14.73;;;5.13;;
20870;SDS011;10595;51.218;3.452;2023-08-08T04:27:33;12.37;;;4.70;;
20870;SDS011;10595;51.218;3.452;2023-08-08T04:29:59;11.47;;;4.83;;
20870;SDS011;10595;51.218;3.452;2023-08-08T04:32:25;11.57;;;5.03;;
20870;SDS011;10595;51.218;3.452;2023-08-08T04:34:51;11.60;;;4.50;;
20870;SDS011;10595;51.218;3.452;2023-08-08T04:37:17;8.83;;;4.53;;
20870;SDS011;10595;51.218;3.452;2023-08-08T04:39:43;13.70;;;4.63;;
20870;SDS011;10595;51.218;3.452;2023-08-08T04:42:09;15.93;;;4.93;;
20870;SDS011;10595;51.218;3.452;2023-08-08T04:44:35;9.87;;;4.43;;
20870;SDS011;10595;51.218;3.452;2023-08-08T04:47:01;12.20;;;4.97;;
20870;SDS011;10595;51.218;3.452;2023-08-08T04:49:27;11.80;;;4.87;;
20870;SDS011;10595;51.218;3.452;2023-08-08T04:51:54;9.30;;;4.60;;
20870;SDS011;10595;51.218;3.452;2023-08-08T04:54:20;19.77;;;5.30;;
20870;SDS011;10595;51.218;3.452;2023-08-08T04:56:46;16.83;;;5.00;;
20870;SDS011;10595;51.218;3.452;2023-08-08T04:59:12;12.43;;;5.17;;
20870;SDS011;10595;51.218;3.452;2023-08-08T05:01:38;12.87;;;4.97;;
20870;SDS011;10595;51.218;3.452;2023-08-08T05:04:04;16.30;;;5.20;;
20870;SDS011;10595;51.218;3.452;2023-08-08T05:06:30;13.30;;;5.13;;
20870;SDS011;10595;51.218;3.452;2023-08-08T05:08:56;10.00;;;5.17;;
20870;SDS011;10595;51.218;3.452;2023-08-08T05:11:22;17.03;;;5.57;;
20870;SDS011;10595;51.218;3.452;2023-08-08T05:13:48;18.67;;;5.63;;
20870;SDS011;10595;51.218;3.452;2023-08-08T05:16:14;15.33;;;4.80;;
20870;SDS011;10595;51.218;3.452;2023-08-08T05:18:40;15.57;;;4.90;;
20870;SDS011;10595;51.218;3.452;2023-08-08T05:21:09;15.43;;;5.07;;
20870;SDS011;10595;51.218;3.452;2023-08-08T05:23:35;13.23;;;5.30;;
20870;SDS011;10595;51.218;3.452;2023-08-08T05:26:01;13.20;;;5.47;;
20870;SDS011;10595;51.218;3.452;2023-08-08T05:28:28;13.80;;;5.40;;
20870;SDS011;10595;51.218;3.452;2023-08-08T05:30:54;18.43;;;5.83;;
20870;SDS011;10595;51.218;3.452;2023-08-08T05:33:21;9.63;;;4.50;;
20870;SDS011;10595;51.218;3.452;2023-08-08T05:35:47;15.73;;;5.53;;
20870;SDS011;10595;51.218;3.452;2023-08-08T05:38:13;10.07;;;5.53;;
20870;SDS011;10595;51.218;3.452;2023-08-08T05:40:39;12.10;;;5.37;;
20870;SDS011;10595;51.218;3.452;2023-08-08T05:43:05;15.03;;;5.43;;
20870;SDS011;10595;51.218;3.452;2023-08-08T05:45:31;11.57;;;4.83;;
20870;SDS011;10595;51.218;3.452;2023-08-08T05:47:57;13.20;;;4.90;;
20870;SDS011;10595;51.218;3.452;2023-08-08T05:50:25;23.13;;;6.20;;
20870;SDS011;10595;51.218;3.452;2023-08-08T05:52:52;12.23;;;5.30;;
20870;SDS011;10595;51.218;3.452;2023-08-08T05:55:18;11.70;;;5.00;;
20870;SDS011;10595;51.218;3.452;2023-08-08T05:57:44;9.87;;;4.27;;
20870;SDS011;10595;51.218;3.452;2023-08-08T06:00:10;17.47;;;5.20;;
20870;SDS011;10595;51.218;3.452;2023-08-08T06:02:37;12.03;;;5.23;;
20870;SDS011;10595;51.218;3.452;2023-08-08T06:05:03;14.77;;;5.20;;
20870;SDS011;10595;51.218;3.452;2023-08-08T06:07:29;16.07;;;4.93;;
20870;SDS011;10595;51.218;3.452;2023-08-08T06:09:55;16.53;;;5.40;;
20870;SDS011;10595;51.218;3.452;2023-08-08T06:12:21;14.50;;;4.97;;
20870;SDS011;10595;51.218;3.452;2023-08-08T06:14:47;13.83;;;5.03;;
20870;SDS011;10595;51.218;3.452;2023-08-08T06:17:14;14.83;;;5.10;;
20870;SDS011;10595;51.218;3.452;2023-08-08T06:19:40;14.03;;;4.90;;
20870;SDS011;10595;51.218;3.452;2023-08-08T06:22:06;14.13;;;4.63;;
20870;SDS011;10595;51.218;3.452;2023-08-08T06:24:32;18.33;;;4.70;;
20870;SDS011;10595;51.218;3.452;2023-08-08T06:26:58;10.90;;;4.33;;
20870;SDS011;10595;51.218;3.452;2023-08-08T06:29:24;12.60;;;4.63;;
20870;SDS011;10595;51.218;3.452;2023-08-08T06:31:50;15.00;;;4.50;;
20870;SDS011;10595;51.218;3.452;2023-08-08T06:34:16;11.37;;;4.23;;
20870;SDS011;10595;51.218;3.452;2023-08-08T06:36:42;13.73;;;4.60;;
20870;SDS011;10595;51.218;3.452;2023-08-08T06:39:08;11.23;;;4.40;;
20870;SDS011;10595;51.218;3.452;2023-08-08T06:41:36;9.97;;;4.20;;
20870;SDS011;10595;51.218;3.452;2023-08-08T06:44:03;10.23;;;4.30;;
20870;SDS011;10595;51.218;3.452;2023-08-08T06:46:29;13.97;;;4.13;;
20870;SDS011;10595;51.218;3.452;2023-08-08T06:48:55;10.63;;;4.37;;
20870;SDS011;10595;51.218;3.452;2023-08-08T06:51:26;13.17;;;4.67;;
20870;SDS011;10595;51.218;3.452;2023-08-08T06:53:52;13.27;;;4.00;;
20870;SDS011;10595;51.218;3.452;2023-08-08T06:56:19;8.43;;;4.07;;
20870;SDS011;10595;51.218;3.452;2023-08-08T06:58:45;9.17;;;4.23;;
20870;SDS011;10595;51.218;3.452;2023-08-08T07:01:11;13.30;;;4.17;;
20870;SDS011;10595;51.218;3.452;2023-08-08T07:03:38;8.53;;;4.37;;
20870;SDS011;10595;51.218;3.452;2023-08-08T07:06:04;11.07;;;4.17;;
20870;SDS011;10595;51.218;3.452;2023-08-08T07:08:31;10.20;;;4.07;;
20870;SDS011;10595;51.218;3.452;2023-08-08T07:10:57;12.00;;;4.63;;
20870;SDS011;10595;51.218;3.452;2023-08-08T07:13:23;9.97;;;4.03;;
20870;SDS011;10595;51.218;3.452;2023-08-08T07:15:49;11.73;;;3.77;;
20870;SDS011;10595;51.218;3.452;2023-08-08T07:18:15;5.97;;;3.90;;
20870;SDS011;10595;51.218;3.452;2023-08-08T07:20:41;12.87;;;4.40;;
20870;SDS011;10595;51.218;3.452;2023-08-08T07:23:07;14.50;;;4.70;;
20870;SDS011;10595;51.218;3.452;2023-08-08T07:25:34;11.20;;;4.17;;
20870;SDS011;10595;51.218;3.452;2023-08-08T07:28:00;7.27;;;3.83;;
20870;SDS011;10595;51.218;3.452;2023-08-08T07:30:26;11.03;;;4.80;;
20870;SDS011;10595;51.218;3.452;2023-08-08T07:32:52;8.17;;;4.53;;
20870;SDS011;10595;51.218;3.452;2023-08-08T07:35:18;9.57;;;4.30;;
20870;SDS011;10595;51.218;3.452;2023-08-08T07:37:44;9.50;;;3.90;;
20870;SDS011;10595;51.218;3.452;2023-08-08T07:40:14;12.33;;;4.83;;
20870;SDS011;10595;51.218;3.452;2023-08-08T07:42:42;9.23;;;4.00;;
20870;SDS011;10595;51.218;3.452;2023-08-08T07:45:08;12.57;;;4.33;;
20870;SDS011;10595;51.218;3.452;2023-08-08T07:47:34;8.07;;;4.07;;
20870;SDS011;10595;51.218;3.452;2023-08-08T07:50:00;7.07;;;3.73;;
20870;SDS011;10595;51.218;3.452;2023-08-08T07:52:27;12.30;;;4.37;;
20870;SDS011;10595;51.218;3.452;2023-08-08T07:54:53;9.07;;;3.93;;
20870;SDS011;10595;51.218;3.452;2023-08-08T07:57:19;10.27;;;4.00;;
20870;SDS011;10595;51.218;3.452;2023-08-08T07:59:45;13.87;;;4.20;;
20870;SDS011;10595;51.218;3.452;2023-08-08T08:02:12;11.27;;;4.40;;
20870;SDS011;10595;51.218;3.452;2023-08-08T08:04:38;10.20;;;3.97;;
20870;SDS011;10595;51.218;3.452;2023-08-08T08:07:04;9.43;;;3.97;;
20870;SDS011;10595;51.218;3.452;2023-08-08T08:09:30;10.77;;;4.00;;
20870;SDS011;10595;51.218;3.452;2023-08-08T08:11:56;12.83;;;4.57;;
20870;SDS011;10595;51.218;3.452;2023-08-08T08:14:22;10.47;;;4.20;;
20870;SDS011;10595;51.218;3.452;2023-08-08T08:16:49;10.20;;;4.50;;
20870;SDS011;10595;51.218;3.452;2023-08-08T08:19:15;8.50;;;3.60;;
20870;SDS011;10595;51.218;3.452;2023-08-08T08:21:41;13.37;;;4.57;;
20870;SDS011;10595;51.218;3.452;2023-08-08T08:24:08;8.93;;;4.17;;
20870;SDS011;10595;51.218;3.452;2023-08-08T08:26:34;7.80;;;3.73;;
20870;SDS011;10595;51.218;3.452;2023-08-08T08:29:00;9.17;;;4.20;;
20870;SDS011;10595;51.218;3.452;2023-08-08T08:31:27;13.57;;;4.20;;
20870;SDS011;10595;51.218;3.452;2023-08-08T08:33:53;7.10;;;3.77;;
20870;SDS011;10595;51.218;3.452;2023-08-08T08:36:20;9.80;;;3.47;;
20870;SDS011;10595;51.218;3.452;2023-08-08T08:38:46;8.00;;;3.50;;
20870;SDS011;10595;51.218;3.452;2023-08-08T08:41:14;7.53;;;3.73;;
20870;SDS011;10595;51.218;3.452;2023-08-08T08:43:41;7.40;;;3.23;;
20870;SDS011;10595;51.218;3.452;2023-08-08T08:46:07;11.00;;;3.47;;
20870;SDS011;10595;51.218;3.452;2023-08-08T08:48:34;7.30;;;3.13;;
20870;SDS011;10595;51.218;3.452;2023-08-08T08:51:00;7.90;;;3.33;;
20870;SDS011;10595;51.218;3.452;2023-08-08T08:53:27;7.90;;;2.90;;
20870;SDS011;10595;51.218;3.452;2023-08-08T08:55:54;6.67;;;3.00;;
20870;SDS011;10595;51.218;3.452;2023-08-08T08:58:22;10.73;;;3.30;;
20870;SDS011;10595;51.218;3.452;2023-08-08T09:00:48;7.27;;;2.70;;
20870;SDS011;10595;51.218;3.452;2023-08-08T09:03:14;8.87;;;2.60;;
20870;SDS011;10595;51.218;3.452;2023-08-08T09:05:40;5.77;;;2.37;;
20870;SDS011;10595;51.218;3.452;2023-08-08T09:08:07;3.90;;;2.30;;
20870;SDS011;10595;51.218;3.452;2023-08-08T09:10:34;4.17;;;2.13;;
20870;SDS011;10595;51.218;3.452;2023-08-08T09:13:00;6.00;;;2.40;;
20870;SDS011;10595;51.218;3.452;2023-08-08T09:15:30;6.87;;;2.40;;
20870;SDS011;10595;51.218;3.452;2023-08-08T09:17:56;5.93;;;1.70;;
20870;SDS011;10595;51.218;3.452;2023-08-08T09:20:22;3.10;;;1.50;;
20870;SDS011;10595;51.218;3.452;2023-08-08T09:22:48;4.20;;;1.43;;
20870;SDS011;10595;51.218;3.452;2023-08-08T09:25:14;2.93;;;1.00;;
20870;SDS011;10595;51.218;3.452;2023-08-08T09:27:41;2.73;;;1.00;;
20870;SDS011;10595;51.218;3.452;2023-08-08T09:30:09;1.67;;;0.80;;
20870;SDS011;10595;51.218;3.452;2023-08-08T09:32:35;1.63;;;0.93;;
20870;SDS011;10595;51.218;3.452;2023-08-08T09:35:01;4.00;;;1.00;;
20870;SDS011;10595;51.218;3.452;2023-08-08T09:37:28;4.13;;;1.00;;
20870;SDS011;10595;51.218;3.452;2023-08-08T09:39:57;2.43;;;1.03;;
20870;SDS011;10595;51.218;3.452;2023-08-08T09:42:23;4.00;;;1.20;;
20870;SDS011;10595;51.218;3.452;2023-08-08T09:44:51;5.73;;;1.20;;
20870;SDS011;10595;51.218;3.452;2023-08-08T09:47:17;1.60;;;0.90;;
20870;SDS011;10595;51.218;3.452;2023-08-08T09:49:43;3.00;;;0.90;;
20870;SDS011;10595;51.218;3.452;2023-08-08T09:52:10;3.83;;;1.07;;
20870;SDS011;10595;51.218;3.452;2023-08-08T09:54:37;4.30;;;0.90;;
20870;SDS011;10595;51.218;3.452;2023-08-08T09:57:04;2.60;;;1.10;;
20870;SDS011;10595;51.218;3.452;2023-08-08T09:59:30;3.50;;;1.30;;
20870;SDS011;10595;51.218;3.452;2023-08-08T10:01:57;3.30;;;1.23;;
20870;SDS011;10595;51.218;3.452;2023-08-08T10:04:23;3.93;;;1.00;;
20870;SDS011;10595;51.218;3.452;2023-08-08T10:06:49;3.37;;;1.00;;
20870;SDS011;10595;51.218;3.452;2023-08-08T10:09:15;2.47;;;1.17;;
20870;SDS011;10595;51.218;3.452;2023-08-08T10:11:41;4.73;;;1.00;;
20870;SDS011;10595;51.218;3.452;2023-08-08T10:14:09;2.47;;;0.97;;
20870;SDS011;10595;51.218;3.452;2023-08-08T10:16:39;5.20;;;1.13;;
20870;SDS011;10595;51.218;3.452;2023-08-08T10:19:05;3.20;;;1.30;;
20870;SDS011;10595;51.218;3.452;2023-08-08T10:21:32;2.53;;;1.50;;
20870;SDS011;10595;51.218;3.452;2023-08-08T10:24:02;3.97;;;1.03;;
20870;SDS011;10595;51.218;3.452;2023-08-08T10:26:28;4.20;;;1.10;;
20870;SDS011;10595;51.218;3.452;2023-08-08T10:28:55;2.47;;;1.07;;
20870;SDS011;10595;51.218;3.452;2023-08-08T10:31:21;2.70;;;1.23;;
20870;SDS011;10595;51.218;3.452;2023-08-08T10:33:48;4.43;;;1.10;;
20870;SDS011;10595;51.218;3.452;2023-08-08T10:36:14;3.17;;;1.10;;
20870;SDS011;10595;51.218;3.452;2023-08-08T10:38:50;2.97;;;1.27;;
20870;SDS011;10595;51.218;3.452;2023-08-08T10:41:18;1.47;;;0.90;;
20870;SDS011;10595;51.218;3.452;2023-08-08T10:43:51;3.50;;;1.37;;
20870;SDS011;10595;51.218;3.452;2023-08-08T10:48:51;1.73;;;1.00;;
20870;SDS011;10595;51.218;3.452;2023-08-08T10:51:17;2.03;;;0.90;;
20870;SDS011;10595;51.218;3.452;2023-08-08T10:53:44;3.37;;;1.40;;
20870;SDS011;10595;51.218;3.452;2023-08-08T10:56:12;3.07;;;0.90;;
20870;SDS011;10595;51.218;3.452;2023-08-08T10:58:42;2.70;;;1.00;;
20870;SDS011;10595;51.218;3.452;2023-08-08T11:01:12;1.87;;;1.30;;
20870;SDS011;10595;51.218;3.452;2023-08-08T11:03:39;1.50;;;0.93;;
20870;SDS011;10595;51.218;3.452;2023-08-08T11:06:06;1.30;;;0.80;;
20870;SDS011;10595;51.218;3.452;2023-08-08T11:08:33;1.63;;;1.10;;
20870;SDS011;10595;51.218;3.452;2023-08-08T11:11:01;1.43;;;0.90;;
20870;SDS011;10595;51.218;3.452;2023-08-08T11:13:28;2.90;;;0.97;;
20870;SDS011;10595;51.218;3.452;2023-08-08T11:15:54;1.27;;;0.80;;
20870;SDS011;10595;51.218;3.452;2023-08-08T11:18:20;4.83;;;1.30;;
20870;SDS011;10595;51.218;3.452;2023-08-08T11:20:47;2.73;;;1.17;;
20870;SDS011;10595;51.218;3.452;2023-08-08T11:23:13;4.00;;;1.23;;
20870;SDS011;10595;51.218;3.452;2023-08-08T11:25:40;2.80;;;1.10;;
20870;SDS011;10595;51.218;3.452;2023-08-08T11:28:07;2.37;;;1.03;;
20870;SDS011;10595;51.218;3.452;2023-08-08T11:30:35;2.83;;;1.23;;
20870;SDS011;10595;51.218;3.452;2023-08-08T11:33:02;2.70;;;1.13;;
20870;SDS011;10595;51.218;3.452;2023-08-08T11:35:28;3.03;;;1.10;;
20870;SDS011;10595;51.218;3.452;2023-08-08T11:37:58;2.13;;;0.80;;
20870;SDS011;10595;51.218;3.452;2023-08-08T11:40:25;1.67;;;0.90;;
20870;SDS011;10595;51.218;3.452;2023-08-08T11:42:51;1.60;;;0.80;;
20870;SDS011;10595;51.218;3.452;2023-08-08T11:45:18;2.83;;;1.17;;
20870;SDS011;10595;51.218;3.452;2023-08-08T11:47:47;3.83;;;1.20;;
20870;SDS011;10595;51.218;3.452;2023-08-08T11:50:13;4.93;;;1.30;;
20870;SDS011;10595;51.218;3.452;2023-08-08T11:52:40;2.83;;;1.40;;
20870;SDS011;10595;51.218;3.452;2023-08-08T11:55:07;3.47;;;1.47;;
20870;SDS011;10595;51.218;3.452;2023-08-08T11:57:37;2.57;;;1.70;;
20870;SDS011;10595;51.218;3.452;2023-08-08T12:00:06;3.97;;;1.30;;
20870;SDS011;10595;51.218;3.452;2023-08-08T12:02:34;4.30;;;1.70;;
20870;SDS011;10595;51.218;3.452;2023-08-08T12:05:04;6.23;;;1.70;;
20870;SDS011;10595;51.218;3.452;2023-08-08T12:07:31;2.60;;;1.57;;
20870;SDS011;10595;51.218;3.452;2023-08-08T12:09:58;3.20;;;2.07;;
20870;SDS011;10595;51.218;3.452;2023-08-08T12:12:25;4.43;;;1.73;;
20870;SDS011;10595;51.218;3.452;2023-08-08T12:14:53;2.40;;;1.70;;
20870;SDS011;10595;51.218;3.452;2023-08-08T12:17:20;3.80;;;2.10;;
20870;SDS011;10595;51.218;3.452;2023-08-08T12:19:47;2.23;;;1.40;;
20870;SDS011;10595;51.218;3.452;2023-08-08T12:22:13;3.43;;;1.70;;
20870;SDS011;10595;51.218;3.452;2023-08-08T12:24:39;4.67;;;2.33;;
20870;SDS011;10595;51.218;3.452;2023-08-08T12:27:05;3.23;;;1.83;;
20870;SDS011;10595;51.218;3.452;2023-08-08T12:29:31;5.87;;;2.00;;
20870;SDS011;10595;51.218;3.452;2023-08-08T12:31:57;4.33;;;2.10;;
20870;SDS011;10595;51.218;3.452;2023-08-08T12:34:23;5.17;;;2.10;;
20870;SDS011;10595;51.218;3.452;2023-08-08T12:36:49;6.27;;;2.03;;
20870;SDS011;10595;51.218;3.452;2023-08-08T12:39:15;5.87;;;2.10;;
20870;SDS011;10595;51.218;3.452;2023-08-08T12:41:41;5.50;;;2.13;;
20870;SDS011;10595;51.218;3.452;2023-08-08T12:44:07;4.50;;;2.27;;
20870;SDS011;10595;51.218;3.452;2023-08-08T12:46:33;4.70;;;2.23;;
20870;SDS011;10595;51.218;3.452;2023-08-08T12:48:59;4.83;;;2.20;;
20870;SDS011;10595;51.218;3.452;2023-08-08T12:51:25;6.07;;;2.67;;
20870;SDS011;10595;51.218;3.452;2023-08-08T12:53:51;3.23;;;2.10;;
20870;SDS011;10595;51.218;3.452;2023-08-08T12:56:17;5.57;;;2.90;;
20870;SDS011;10595;51.218;3.452;2023-08-08T12:58:44;4.07;;;2.43;;
20870;SDS011;10595;51.218;3.452;2023-08-08T13:01:10;4.93;;;2.20;;
20870;SDS011;10595;51.218;3.452;2023-08-08T13:03:36;4.83;;;2.43;;
20870;SDS011;10595;51.218;3.452;2023-08-08T13:06:02;5.33;;;2.30;;
20870;SDS011;10595;51.218;3.452;2023-08-08T13:08:28;5.83;;;2.60;;
20870;SDS011;10595;51.218;3.452;2023-08-08T13:10:54;4.20;;;2.30;;
20870;SDS011;10595;51.218;3.452;2023-08-08T13:13:20;3.80;;;2.13;;
20870;SDS011;10595;51.218;3.452;2023-08-08T13:15:50;5.17;;;2.57;;
20870;SDS011;10595;51.218;3.452;2023-08-08T13:18:16;6.13;;;2.33;;
20870;SDS011;10595;51.218;3.452;2023-08-08T13:20:42;4.67;;;2.33;;
20870;SDS011;10595;51.218;3.452;2023-08-08T13:23:08;6.23;;;2.47;;
20870;SDS011;10595;51.218;3.452;2023-08-08T13:25:34;3.27;;;2.50;;
20870;SDS011;10595;51.218;3.452;2023-08-08T13:28:01;3.97;;;1.90;;
20870;SDS011;10595;51.218;3.452;2023-08-08T13:30:28;2.10;;;1.70;;
20870;SDS011;10595;51.218;3.452;2023-08-08T13:32:54;6.03;;;2.00;;
20870;SDS011;10595;51.218;3.452;2023-08-08T13:35:20;4.37;;;1.70;;
20870;SDS011;10595;51.218;3.452;2023-08-08T13:37:46;3.00;;;1.60;;
20870;SDS011;10595;51.218;3.452;2023-08-08T13:40:17;2.67;;;1.77;;
20870;SDS011;10595;51.218;3.452;2023-08-08T13:42:43;6.03;;;2.00;;
20870;SDS011;10595;51.218;3.452;2023-08-08T13:45:13;4.17;;;1.70;;
20870;SDS011;10595;51.218;3.452;2023-08-08T13:47:39;2.93;;;1.63;;
20870;SDS011;10595;51.218;3.452;2023-08-08T13:50:05;2.93;;;1.77;;
20870;SDS011;10595;51.218;3.452;2023-08-08T13:52:31;6.20;;;1.90;;
20870;SDS011;10595;51.218;3.452;2023-08-08T13:54:58;2.03;;;1.47;;
20870;SDS011;10595;51.218;3.452;2023-08-08T13:57:24;2.07;;;1.17;;
20870;SDS011;10595;51.218;3.452;2023-08-08T13:59:50;1.97;;;1.20;;
20870;SDS011;10595;51.218;3.452;2023-08-08T14:02:16;2.80;;;1.57;;
20870;SDS011;10595;51.218;3.452;2023-08-08T14:04:43;2.50;;;1.20;;
20870;SDS011;10595;51.218;3.452;2023-08-08T14:07:09;2.90;;;1.20;;
20870;SDS011;10595;51.218;3.452;2023-08-08T14:09:35;3.67;;;1.13;;
20870;SDS011;10595;51.218;3.452;2023-08-08T14:12:02;2.73;;;1.00;;
20870;SDS011;10595;51.218;3.452;2023-08-08T14:14:28;1.87;;;1.00;;
20870;SDS011;10595;51.218;3.452;2023-08-08T14:16:54;2.87;;;0.90;;
20870;SDS011;10595;51.218;3.452;2023-08-08T14:19:20;4.60;;;1.37;;
20870;SDS011;10595;51.218;3.452;2023-08-08T14:21:46;4.50;;;0.90;;
20870;SDS011;10595;51.218;3.452;2023-08-08T14:24:12;3.40;;;0.90;;
20870;SDS011;10595;51.218;3.452;2023-08-08T14:26:38;4.93;;;1.07;;
20870;SDS011;10595;51.218;3.452;2023-08-08T14:29:04;1.83;;;1.03;;
20870;SDS011;10595;51.218;3.452;2023-08-08T14:31:30;1.40;;;1.20;;
20870;SDS011;10595;51.218;3.452;2023-08-08T14:33:56;3.07;;;1.20;;
20870;SDS011;10595;51.218;3.452;2023-08-08T14:36:22;1.63;;;1.00;;
20870;SDS011;10595;51.218;3.452;2023-08-08T14:38:48;4.20;;;2.13;;
20870;SDS011;10595;51.218;3.452;2023-08-08T14:41:14;3.73;;;1.67;;
20870;SDS011;10595;51.218;3.452;2023-08-08T14:43:40;2.40;;;1.40;;